Time;durP1;ratioP1;P1;durP2;ratioP2;P2;SDS_P1;SDS_P2;PMS_P1;PMS_P2;Temp;Humidity;BMP_temperature;BMP_pressure;BME280_temperature;BME280_humidity;BME280_pressure;Samples;Min_cycle;Max_cycle;Signal;HPM_P1;HPM_P2
2022/02/19 00:01:10;;;;;;;8.05;2.20;;;;;;;-1.47;100.00;98226.06;4992775;28;20050;-62
2022/02/19 00:03:36;;;;;;;7.22;2.25;;;;;;;-1.47;100.00;98236.69;4994222;28;20038;-64
2022/02/19 00:06:02;;;;;;;9.02;2.28;;;;;;;-1.53;100.00;98226.53;4976560;28;20039;-64
2022/02/19 00:08:28;;;;;;;7.82;2.35;;;;;;;-1.51;100.00;98240.50;4976702;28;20056;-63
2022/02/19 00:10:53;;;;;;;8.73;2.42;;;;;;;-1.49;100.00;98239.44;4992685;28;20465;-62
2022/02/19 00:13:19;;;;;;;7.55;2.50;;;;;;;-1.62;100.00;98212.13;4993747;28;20054;-63
2022/02/19 00:15:47;;;;;;;6.82;2.00;;;;;;;-1.46;100.00;98249.00;4993463;28;20494;-66
2022/02/19 00:18:12;;;;;;;6.97;2.40;;;;;;;-1.44;100.00;98251.50;4992312;28;20652;-65
2022/02/19 00:20:40;;;;;;;6.97;2.28;;;;;;;-1.39;100.00;98250.25;4960799;28;20074;-61
2022/02/19 00:23:06;;;;;;;7.82;2.47;;;;;;;-1.22;100.00;98251.66;4976147;28;20089;-63
2022/02/19 00:25:32;;;;;;;7.55;2.25;;;;;;;-1.20;100.00;98251.56;4976019;28;20065;-62
2022/02/19 00:27:57;;;;;;;8.65;2.45;;;;;;;-1.15;100.00;98241.44;4960083;28;20050;-62
2022/02/19 00:30:23;;;;;;;6.10;1.85;;;;;;;-1.13;100.00;98251.00;4993152;28;20158;-64
2022/02/19 00:32:49;;;;;;;7.07;2.47;;;;;;;-1.11;100.00;98248.22;4994010;28;20058;-63
2022/02/19 00:35:15;;;;;;;8.10;2.28;;;;;;;-1.09;100.00;98254.25;4993561;28;20057;-65
2022/02/19 00:37:41;;;;;;;8.25;2.22;;;;;;;-0.99;100.00;98256.13;4959800;28;20417;-63
2022/02/19 00:40:08;;;;;;;7.80;2.20;;;;;;;-1.06;100.00;98243.41;4991920;28;20090;-62
2022/02/19 00:42:35;;;;;;;9.27;2.30;;;;;;;-1.15;100.00;98225.53;4975730;28;20129;-62
2022/02/19 00:45:01;;;;;;;8.80;2.60;;;;;;;-0.98;100.00;98233.09;4975584;28;20162;-63
2022/02/19 00:47:29;;;;;;;5.78;1.70;;;;;;;-0.93;100.00;98246.84;4975824;28;20502;-61
2022/02/19 00:49:54;;;;;;;9.07;2.20;;;;;;;-0.87;100.00;98251.72;4992195;28;20061;-63
2022/02/19 00:52:20;;;;;;;7.15;2.25;;;;;;;-0.87;100.00;98253.53;4992011;28;20058;-64
2022/02/19 00:54:46;;;;;;;7.50;1.98;;;;;;;-0.88;100.00;98239.38;4976073;28;20112;-64
2022/02/19 00:57:13;;;;;;;9.40;2.28;;;;;;;-0.82;100.00;98243.41;4960085;28;20344;-61
2022/02/19 00:59:39;;;;;;;8.07;2.03;;;;;;;-0.96;100.00;98217.91;5008174;28;20073;-64
2022/02/19 01:02:05;;;;;;;6.80;2.17;;;;;;;-0.89;100.00;98232.41;4992990;28;20046;-63
2022/02/19 01:04:36;;;;;;;7.13;1.65;;;;;;;-0.85;100.00;98239.16;4994331;28;20108;-63
2022/02/19 01:07:01;;;;;;;8.77;2.33;;;;;;;-0.79;100.00;98244.03;4976928;28;20038;-62
2022/02/19 01:09:27;;;;;;;6.18;2.00;;;;;;;-0.87;100.00;98225.19;4992641;28;20418;-63
2022/02/19 01:11:54;;;;;;;9.13;2.20;;;;;;;-0.84;100.00;98227.63;4976323;28;20053;-67
2022/02/19 01:14:21;;;;;;;8.40;2.30;;;;;;;-0.86;100.00;98221.56;4992346;28;20524;-64
2022/02/19 01:16:48;;;;;;;8.07;1.90;;;;;;;-1.12;100.00;98167.81;4991946;28;20480;-63
2022/02/19 01:19:13;;;;;;;8.45;2.45;;;;;;;-1.02;100.00;98183.91;4960046;28;20142;-65
2022/02/19 01:21:39;;;;;;;9.48;2.70;;;;;;;-0.90;100.00;98211.31;4992366;28;20109;-62
2022/02/19 01:24:06;;;;;;;6.95;1.95;;;;;;;-0.81;100.00;98230.00;5003863;28;20070;-64
2022/02/19 01:26:33;;;;;;;8.18;2.50;;;;;;;-0.78;100.00;98219.16;5014444;28;20088;-63
2022/02/19 01:29:01;;;;;;;8.45;2.33;;;;;;;-0.80;100.00;98221.13;5012131;28;20068;-63
2022/02/19 01:31:29;;;;;;;7.82;2.28;;;;;;;-0.82;100.00;98212.41;4995793;28;20067;-65
2022/02/19 01:33:55;;;;;;;9.23;2.38;;;;;;;-0.84;100.00;98209.03;5010854;28;20065;-64
2022/02/19 01:36:21;;;;;;;8.95;2.30;;;;;;;-0.86;100.00;98204.81;4994312;28;20045;-63
2022/02/19 01:38:48;;;;;;;8.60;2.60;;;;;;;-1.04;100.00;98191.13;5010881;28;20061;-63
2022/02/19 01:41:14;;;;;;;10.75;2.47;;;;;;;-1.01;100.00;98196.19;5012095;28;20049;-64
2022/02/19 01:43:41;;;;;;;8.43;2.08;;;;;;;-1.02;100.00;98195.34;5010401;28;20046;-64
2022/02/19 01:46:07;;;;;;;8.40;2.28;;;;;;;-1.14;100.00;98177.69;4995008;28;20050;-64
2022/02/19 01:48:34;;;;;;;11.80;2.40;;;;;;;-1.01;100.00;98196.19;4995201;28;20061;-64
2022/02/19 01:51:00;;;;;;;7.15;2.17;;;;;;;-1.07;100.00;98196.63;5010633;28;20091;-68
2022/02/19 01:53:26;;;;;;;10.57;3.35;;;;;;;-1.24;100.00;98174.88;4994702;28;20389;-63
2022/02/19 01:55:58;;;;;;;17.02;2.80;;;;;;;-1.12;100.00;98189.03;5010689;28;20594;-64
2022/02/19 01:58:42;;;;;;;11.35;2.88;;;;;;;-1.13;100.00;98197.09;5010697;28;20111;-64
2022/02/19 02:01:28;;;;;;;8.98;2.72;;;;;;;-1.19;100.00;98189.59;4996539;28;20534;-63
2022/02/19 02:04:16;;;;;;;16.90;2.95;;;;;;;-1.30;100.00;98179.78;5007086;28;20057;-63
2022/02/19 02:06:42;;;;;;;7.82;2.90;;;;;;;-1.47;100.00;98165.13;5010177;28;20451;-63
2022/02/19 02:09:08;;;;;;;10.32;3.15;;;;;;;-1.41;100.00;98183.22;4994546;28;20049;-63
2022/02/19 02:11:37;;;;;;;10.43;3.25;;;;;;;-1.31;100.00;98194.84;4995518;28;20037;-64
2022/02/19 02:14:04;;;;;;;8.90;3.10;;;;;;;-1.23;100.00;98203.09;5011770;28;20060;-64
2022/02/19 02:16:53;;;;;;;10.88;2.88;;;;;;;-1.38;100.00;98177.72;4994576;28;20442;-61
2022/02/19 02:19:21;;;;;;;10.50;3.45;;;;;;;-1.19;100.00;98194.91;4993191;28;20118;-64
2022/02/19 02:21:58;;;;;;;9.40;3.10;;;;;;;-1.14;100.00;98200.69;4995182;28;20132;-64
2022/02/19 02:24:24;;;;;;;8.07;2.97;;;;;;;-1.15;100.00;98202.50;5009622;28;20141;-63
2022/02/19 02:26:52;;;;;;;10.07;3.13;;;;;;;-1.08;100.00;98205.56;4993458;28;20045;-64
2022/02/19 02:29:21;;;;;;;10.52;2.92;;;;;;;-1.10;100.00;98202.16;4977428;28;20481;-63
2022/02/19 02:31:47;;;;;;;9.05;2.90;;;;;;;-1.06;100.00;98198.31;5009412;28;20065;-63
2022/02/19 02:34:13;;;;;;;10.77;2.85;;;;;;;-1.08;100.00;98205.56;4993445;28;20145;-63
2022/02/19 02:36:39;;;;;;;7.75;2.72;;;;;;;-1.08;100.00;98213.50;5009433;28;20037;-61
2022/02/19 02:39:06;;;;;;;9.60;3.45;;;;;;;-1.12;100.00;98190.84;5009493;28;20042;-62
2022/02/19 02:41:32;;;;;;;10.15;2.90;;;;;;;-1.22;100.00;98165.00;4993009;28;20046;-63
2022/02/19 02:44:04;;;;;;;11.52;3.28;;;;;;;-1.10;100.00;98194.22;5009469;28;20046;-63
2022/02/19 02:46:30;;;;;;;8.93;3.72;;;;;;;-1.15;100.00;98188.41;4992914;28;20466;-62
2022/02/19 02:49:01;;;;;;;11.45;3.38;;;;;;;-1.08;100.00;98200.25;5026093;28;20404;-63
2022/02/19 02:51:31;;;;;;;10.27;3.80;;;;;;;-1.10;100.00;98196.88;5025554;28;20132;-64
2022/02/19 02:53:57;;;;;;;9.75;3.30;;;;;;;-1.30;100.00;98170.03;4976673;28;20631;-64
2022/02/19 02:56:24;;;;;;;11.23;3.85;;;;;;;-1.13;100.00;98197.09;5008567;28;20045;-65
2022/02/19 02:58:50;;;;;;;9.65;3.53;;;;;;;-1.30;100.00;98164.72;4992843;28;20046;-63
2022/02/19 03:01:16;;;;;;;9.68;3.85;;;;;;;-1.18;100.00;98186.00;4992658;28;20045;-63
2022/02/19 03:03:42;;;;;;;11.90;3.33;;;;;;;-1.05;100.00;98195.56;4993032;28;20049;-63
2022/02/19 03:06:11;;;;;;;10.35;3.80;;;;;;;-1.01;100.00;98190.88;4977268;28;20041;-63
2022/02/19 03:08:41;;;;;;;9.05;3.50;;;;;;;-0.98;100.00;98195.97;5009277;28;20056;-63
2022/02/19 03:11:07;;;;;;;9.10;3.58;;;;;;;-1.07;100.00;98175.44;5010536;28;20041;-64
2022/02/19 03:13:37;;;;;;;8.60;3.38;;;;;;;-1.01;100.00;98169.66;4993473;28;20528;-62
2022/02/19 03:16:06;;;;;;;10.38;3.40;;;;;;;-0.80;100.00;98183.97;4961165;28;20094;-66
2022/02/19 03:18:33;;;;;;;12.68;3.50;;;;;;;-0.76;100.00;98196.03;4976858;28;20374;-64
2022/02/19 03:21:01;;;;;;;8.40;3.40;;;;;;;-0.72;100.00;98201.97;4992846;28;20516;-63
2022/02/19 03:23:30;;;;;;;8.35;3.65;;;;;;;-0.67;100.00;98204.25;5010338;28;20140;-63
2022/02/19 03:25:56;;;;;;;9.85;3.88;;;;;;;-0.65;100.00;98210.31;5008808;28;20137;-64
2022/02/19 03:28:22;;;;;;;8.43;3.10;;;;;;;-0.63;100.00;98195.09;5009180;28;20046;-62
2022/02/19 03:30:54;;;;;;;9.15;3.58;;;;;;;-0.77;100.00;98178.44;4992487;28;20508;-62
2022/02/19 03:33:43;;;;;;;9.32;3.20;;;;;;;-0.59;100.00;98208.00;4992243;28;20560;-63
2022/02/19 03:36:10;;;;;;;9.27;3.38;;;;;;;-0.58;100.00;98208.88;4992675;28;20046;-64
2022/02/19 03:38:35;;;;;;;9.95;3.15;;;;;;;-0.54;100.00;98199.72;5009265;28;20050;-64
2022/02/19 03:41:04;;;;;;;7.95;3.20;;;;;;;-0.57;100.00;98197.28;4992787;28;20081;-64
2022/02/19 03:43:31;;;;;;;12.27;3.67;;;;;;;-0.48;100.00;98204.53;5008712;28;20057;-63
2022/02/19 03:45:57;;;;;;;9.68;3.60;;;;;;;-0.44;100.00;98203.31;4992617;28;20050;-63
2022/02/19 03:48:43;;;;;;;9.50;3.35;;;;;;;-0.42;100.00;98197.91;4988827;28;20060;-64
2022/02/19 03:51:11;;;;;;;8.35;2.80;;;;;;;-0.41;100.00;98199.59;4992351;28;20046;-63
2022/02/19 03:53:39;;;;;;;10.13;2.95;;;;;;;-0.42;100.00;98193.44;5008514;28;20088;-63
2022/02/19 03:56:05;;;;;;;8.65;2.90;;;;;;;-0.37;100.00;98190.44;4960326;28;20038;-61
2022/02/19 03:58:34;;;;;;;9.90;3.55;;;;;;;-0.36;100.00;98197.47;5008758;28;20096;-64
2022/02/19 04:01:04;;;;;;;9.88;3.17;;;;;;;-0.36;100.00;98197.47;5008468;28;20058;-63
2022/02/19 04:03:30;;;;;;;9.20;3.15;;;;;;;-0.34;100.00;98192.84;5008981;28;20049;-63
2022/02/19 04:05:57;;;;;;;8.23;2.75;;;;;;;-0.37;100.00;98196.59;5008628;28;20402;-63
2022/02/19 04:08:25;;;;;;;8.77;3.30;;;;;;;-0.35;100.00;98199.13;5011449;28;20217;-62
2022/02/19 04:10:53;;;;;;;13.15;3.22;;;;;;;-0.35;100.00;98194.66;4996309;28;20466;-64
2022/02/19 04:13:20;;;;;;;10.57;3.42;;;;;;;-0.31;100.00;98212.06;4979550;28;20077;-64
2022/02/19 04:16:08;;;;;;;9.18;3.30;;;;;;;-0.37;100.00;98191.28;4999077;28;20057;-65
2022/02/19 04:18:37;;;;;;;9.13;3.33;;;;;;;-0.51;100.00;98157.84;4995885;28;20046;-64
2022/02/19 04:21:04;;;;;;;12.10;3.42;;;;;;;-0.35;100.00;98181.41;4995393;28;20072;-63
2022/02/19 04:23:30;;;;;;;9.20;3.03;;;;;;;-0.37;100.00;98175.34;5011960;28;20417;-64
2022/02/19 04:26:02;;;;;;;9.15;3.30;;;;;;;-0.54;100.00;98149.28;5011899;28;20046;-63
2022/02/19 04:28:37;;;;;;;11.60;3.45;;;;;;;-0.40;100.00;98170.31;4995739;28;20037;-62
2022/02/19 04:31:03;;;;;;;11.05;3.35;;;;;;;-0.38;100.00;98168.34;5011845;28;20152;-63
2022/02/19 04:33:28;;;;;;;9.98;3.65;;;;;;;-0.39;100.00;98166.66;4995191;28;20061;-63
2022/02/19 04:35:55;;;;;;;11.57;3.97;;;;;;;-0.36;100.00;98165.59;4995403;28;20153;-63
2022/02/19 04:38:24;;;;;;;10.77;3.80;;;;;;;-0.41;100.00;98147.34;5012136;28;20062;-63
2022/02/19 04:40:51;;;;;;;10.13;3.75;;;;;;;-0.43;100.00;98159.91;4995719;28;20045;-67
2022/02/19 04:43:18;;;;;;;10.98;4.38;;;;;;;-0.58;100.00;98146.03;5012274;28;20532;-63
2022/02/19 04:45:46;;;;;;;11.20;3.92;;;;;;;-0.46;100.00;98160.16;5012730;28;20042;-64
2022/02/19 04:48:14;;;;;;;10.80;3.88;;;;;;;-0.47;100.00;98165.59;5028229;28;20097;-63
2022/02/19 04:50:41;;;;;;;10.27;4.55;;;;;;;-0.52;100.00;98165.91;5012467;28;20125;-64
2022/02/19 04:53:06;;;;;;;12.25;3.95;;;;;;;-0.68;100.00;98144.19;5012424;28;20501;-64
2022/02/19 04:55:36;;;;;;;12.07;5.13;;;;;;;-0.52;100.00;98165.91;5011795;28;20465;-64
2022/02/19 04:58:10;;;;;;;13.93;4.78;;;;;;;-0.61;100.00;98156.03;4994778;28;20513;-65
2022/02/19 05:00:36;;;;;;;12.43;4.57;;;;;;;-0.64;100.00;98143.84;5011020;28;20140;-64
2022/02/19 05:03:37;;;;;;;12.52;4.63;;;;;;;-0.78;100.00;98128.97;5030145;28;20412;-62
2022/02/19 05:06:18;;;;;;;9.95;4.20;;;;;;;-0.62;100.00;98143.69;5011723;28;20061;-64
2022/02/19 05:08:52;;;;;;;11.25;4.88;;;;;;;-0.63;100.00;98155.28;5012683;28;20046;-64
2022/02/19 05:11:22;;;;;;;11.85;4.78;;;;;;;-0.74;100.00;98149.00;5011221;28;20148;-64
2022/02/19 05:13:50;;;;;;;11.85;5.03;;;;;;;-0.77;100.00;98159.88;4995049;28;20058;-64
2022/02/19 05:16:18;;;;;;;10.75;4.63;;;;;;;-0.80;100.00;98151.28;4996221;28;20092;-65
2022/02/19 05:18:54;;;;;;;12.05;4.40;;;;;;;-0.78;100.00;98165.28;4996659;28;20157;-65
2022/02/19 05:21:21;;;;;;;9.85;4.90;;;;;;;-0.95;100.00;98150.66;4979076;28;20045;-65
2022/02/19 05:23:52;;;;;;;11.52;5.18;;;;;;;-0.83;100.00;98172.75;5011735;28;20136;-63
2022/02/19 05:26:24;;;;;;;9.77;4.50;;;;;;;-0.91;100.00;98170.69;4979657;28;20041;-64
2022/02/19 05:28:50;;;;;;;10.77;4.18;;;;;;;-1.07;100.00;98149.75;4994762;28;20103;-65
2022/02/19 05:31:18;;;;;;;8.75;4.07;;;;;;;-0.86;100.00;98200.34;4995043;28;20060;-64
2022/02/19 05:34:19;;;;;;;11.43;4.55;;;;;;;-0.87;100.00;98188.03;4973963;28;20047;-64
2022/02/19 05:36:48;;;;;;;10.85;4.45;;;;;;;-0.89;100.00;98181.16;4987381;28;20077;-65
2022/02/19 05:39:15;;;;;;;11.90;4.68;;;;;;;-0.87;100.00;98185.41;5010709;28;20060;-65
2022/02/19 05:41:42;;;;;;;11.18;3.92;;;;;;;-0.83;100.00;98194.81;4978030;28;20495;-65
2022/02/19 05:44:14;;;;;;;10.75;4.30;;;;;;;-0.84;100.00;98179.88;4978762;28;20050;-64
2022/02/19 05:46:40;;;;;;;11.70;4.20;;;;;;;-0.75;100.00;98173.84;4978174;28;20049;-64
2022/02/19 05:49:06;;;;;;;10.88;4.25;;;;;;;-0.75;100.00;98170.34;5010342;28;20335;-64
2022/02/19 05:51:55;;;;;;;10.15;4.25;;;;;;;-0.75;100.00;98165.88;5002496;28;20152;-64
2022/02/19 05:54:29;;;;;;;10.90;3.90;;;;;;;-0.71;100.00;98160.34;4978810;28;20489;-62
2022/02/19 05:57:09;;;;;;;11.35;4.60;;;;;;;-0.73;100.00;98150.69;5026669;28;20041;-64
2022/02/19 05:59:36;;;;;;;13.02;5.45;;;;;;;-0.65;100.00;98155.41;5010221;28;20089;-64
2022/02/19 06:02:02;;;;;;;15.93;5.40;;;;;;;-0.63;100.00;98148.16;4945993;28;20395;-66
2022/02/19 06:04:28;;;;;;;13.18;5.85;;;;;;;-0.74;100.00;98113.66;4994911;28;20038;-66
2022/02/19 06:06:54;;;;;;;13.35;5.88;;;;;;;-0.51;100.00;98147.25;5010966;28;20116;-64
2022/02/19 06:09:25;;;;;;;12.23;5.78;;;;;;;-0.44;100.00;98152.91;4994672;28;20045;-65
2022/02/19 06:11:52;;;;;;;15.93;8.55;;;;;;;-0.40;100.00;98154.38;5010049;28;20389;-65
2022/02/19 06:14:29;;;;;;;;;;;;;;;-0.35;100.00;98157.50;4966717;28;20053;-65
2022/02/19 06:17:00;;;;;;;16.08;7.50;;;;;;;-0.44;100.00;98136.97;5026682;28;20032;-65
2022/02/19 06:19:26;;;;;;;12.82;6.22;;;;;;;-0.28;100.00;98157.88;4977292;28;20454;-64
2022/02/19 06:21:56;;;;;;;14.23;6.40;;;;;;;-0.46;100.00;98133.59;4994287;28;20053;-67
2022/02/19 06:24:24;;;;;;;13.40;6.05;;;;;;;-0.23;100.00;98154.84;4981251;28;20047;-66
2022/02/19 06:26:54;;;;;;;12.48;5.38;;;;;;;-0.20;100.00;98159.94;4999666;28;20399;-69
2022/02/19 06:29:29;;;;;;;10.88;5.22;;;;;;;-0.16;100.00;98146.28;4968640;28;20065;-66
2022/02/19 06:32:01;;;;;;;10.93;5.07;;;;;;;-0.16;100.00;98145.44;4958416;28;20354;-66
2022/02/19 06:34:27;;;;;;;12.73;4.53;;;;;;;-0.09;100.00;98139.50;4968411;28;20042;-64
2022/02/19 06:36:53;;;;;;;9.10;2.97;;;;;;;-0.01;99.60;98146.88;4984867;28;20399;-65
2022/02/19 06:39:24;;;;;;;11.50;3.92;;;;;;;-0.03;99.40;98141.69;4960775;28;20126;-65
2022/02/19 06:41:50;;;;;;;10.18;3.38;;;;;;;0.06;98.39;98150.72;4983537;28;20057;-65
2022/02/19 06:44:29;;;;;;;9.52;3.63;;;;;;;0.16;97.84;98157.00;4970400;28;20042;-65
2022/02/19 06:46:56;;;;;;;8.43;3.10;;;;;;;0.19;96.88;98156.75;4937624;28;20073;-65
2022/02/19 06:49:23;;;;;;;8.05;2.60;;;;;;;0.26;96.80;98142.97;4974685;28;20997;-65
2022/02/19 06:51:54;;;;;;;11.32;3.50;;;;;;;0.27;96.19;98147.34;4939331;28;20486;-65
2022/02/19 06:54:19;;;;;;;11.02;3.67;;;;;;;0.33;95.89;98141.50;4982538;28;20042;-65
2022/02/19 06:56:46;;;;;;;9.32;3.47;;;;;;;0.48;95.60;98151.75;4951440;28;20410;-65
2022/02/19 06:59:13;;;;;;;9.93;3.50;;;;;;;0.29;94.87;98113.47;4968345;28;20375;-65
2022/02/19 07:01:39;;;;;;;9.27;3.08;;;;;;;0.50;95.10;98142.78;4961748;28;20038;-66
2022/02/19 07:04:05;;;;;;;9.13;3.45;;;;;;;0.52;94.50;98144.38;4951913;28;20483;-65
2022/02/19 07:06:57;;;;;;;9.82;3.70;;;;;;;0.47;95.03;98146.53;4985306;28;20506;-65
2022/02/19 07:09:25;;;;;;;9.85;3.78;;;;;;;0.40;94.96;98146.22;4965106;28;20494;-67
2022/02/19 07:11:54;;;;;;;10.25;4.05;;;;;;;0.43;94.94;98145.94;4939361;28;20101;-66
2022/02/19 07:14:21;;;;;;;11.13;3.55;;;;;;;0.55;94.53;98140.59;4961110;28;20372;-62
2022/02/19 07:16:50;;;;;;;10.18;3.63;;;;;;;0.60;93.78;98136.59;4940138;28;20042;-67
2022/02/19 07:19:19;;;;;;;8.80;3.20;;;;;;;0.76;93.13;98135.34;4944706;28;20495;-70
2022/02/19 07:21:45;;;;;;;9.85;4.05;;;;;;;0.80;92.70;98124.31;4975898;28;20510;-65
2022/02/19 07:24:12;;;;;;;13.52;4.82;;;;;;;0.82;92.94;98121.53;4952680;28;20046;-67
2022/02/19 07:26:39;;;;;;;12.95;4.72;;;;;;;0.87;93.13;98114.00;4966306;28;20109;-66
2022/02/19 07:29:07;;;;;;;13.63;4.40;;;;;;;0.96;92.26;98110.59;4974219;28;20055;-65
2022/02/19 07:31:41;;;;;;;10.82;4.68;;;;;;;0.99;92.27;98093.50;4953493;28;20042;-65
2022/02/19 07:34:07;;;;;;;10.57;4.15;;;;;;;1.05;91.07;98091.16;4972260;28;20370;-65
2022/02/19 07:36:36;;;;;;;11.32;4.43;;;;;;;1.35;89.60;98086.88;4946880;28;20418;-66
2022/02/19 07:39:03;;;;;;;11.68;4.50;;;;;;;1.76;86.71;98085.13;4955271;28;20092;-66
2022/02/19 07:41:33;;;;;;;10.98;4.53;;;;;;;1.76;86.50;98079.78;4951422;28;20114;-66
2022/02/19 07:43:59;;;;;;;11.23;4.45;;;;;;;1.65;86.76;98076.25;4957665;28;20092;-69
2022/02/19 07:46:47;;;;;;;11.38;4.25;;;;;;;2.00;85.21;98056.28;4963919;28;20055;-67
2022/02/19 08:00:46;;;;;;;13.98;4.40;;;;;;;1.34;88.05;98053.25;4971312;28;20577;-65
2022/02/19 08:03:13;;;;;;;11.48;3.63;;;;;;;1.41;87.59;98033.94;4989909;28;20535;-65
2022/02/19 08:05:43;;;;;;;10.90;3.45;;;;;;;1.52;87.55;98035.66;4942527;28;20073;-65
2022/02/19 08:08:10;;;;;;;11.73;5.13;;;;;;;1.44;87.75;98039.00;4956560;28;20046;-64
2022/02/19 08:10:37;;;;;;;10.38;4.18;;;;;;;1.69;85.78;98021.72;4973155;28;20165;-65
2022/02/19 08:13:04;;;;;;;11.25;4.40;;;;;;;2.50;81.57;98021.53;4973160;28;20047;-65
2022/02/19 08:15:30;;;;;;;11.38;4.10;;;;;;;2.56;80.35;98010.31;4972626;28;20098;-65
2022/02/19 08:17:57;;;;;;;10.80;3.25;;;;;;;2.20;81.87;98014.53;4989130;28;20553;-64
2022/02/19 08:20:23;;;;;;;8.68;3.58;;;;;;;1.95;83.09;98015.88;4989432;28;20109;-64
2022/02/19 08:22:48;;;;;;;9.40;3.67;;;;;;;1.86;84.00;98016.69;4972967;28;20122;-65
2022/02/19 08:25:14;;;;;;;9.43;3.58;;;;;;;1.80;83.72;98002.13;4974460;28;20058;-65
2022/02/19 08:27:40;;;;;;;10.30;4.28;;;;;;;1.90;83.42;97996.78;4972435;28;20506;-65
2022/02/19 08:30:07;;;;;;;9.43;2.95;;;;;;;1.86;83.40;97971.41;4957961;28;20122;-69
2022/02/19 08:32:33;;;;;;;10.13;3.65;;;;;;;1.76;83.04;97979.41;4980367;28;20097;-65
2022/02/19 08:34:59;;;;;;;9.45;3.42;;;;;;;1.77;83.20;97964.25;4954748;28;20104;-67
2022/02/19 08:37:25;;;;;;;9.23;3.53;;;;;;;1.77;83.53;97966.91;4964716;28;20058;-66
2022/02/19 08:39:51;;;;;;;9.65;3.00;;;;;;;1.91;83.36;97961.19;4970039;28;20419;-66
2022/02/19 08:42:17;;;;;;;8.07;3.42;;;;;;;1.95;82.71;97962.59;4973394;28;20102;-66
2022/02/19 08:44:43;;;;;;;9.30;3.60;;;;;;;1.95;82.67;97954.59;4946312;28;20443;-67
2022/02/19 08:47:10;;;;;;;9.85;3.63;;;;;;;1.84;82.23;97960.06;4945612;28;20438;-65
2022/02/19 08:49:36;;;;;;;9.55;3.45;;;;;;;1.88;82.20;97946.31;4972163;28;20062;-65
2022/02/19 08:52:02;;;;;;;9.32;3.65;;;;;;;1.93;82.16;97937.91;4946531;28;20047;-65
2022/02/19 08:54:28;;;;;;;8.70;3.50;;;;;;;1.85;82.54;97940.41;4954781;28;20050;-64
2022/02/19 08:56:54;;;;;;;8.93;3.35;;;;;;;1.85;81.48;97924.44;4952301;28;20035;-65
2022/02/19 08:59:21;;;;;;;9.40;3.63;;;;;;;1.92;82.12;97920.22;4973208;28;20105;-65
2022/02/19 09:01:47;;;;;;;8.93;3.20;;;;;;;1.92;82.40;97931.72;4970118;28;20465;-65
2022/02/19 09:04:14;;;;;;;11.25;4.20;;;;;;;2.02;81.67;97909.59;4967646;28;20077;-65
2022/02/19 09:06:40;;;;;;;8.23;3.10;;;;;;;1.95;80.97;97909.31;4957983;28;20090;-65
2022/02/19 09:09:06;;;;;;;8.95;3.05;;;;;;;1.86;81.15;97913.63;4954995;28;20434;-65
2022/02/19 09:11:33;;;;;;;9.32;3.35;;;;;;;1.79;81.25;97895.69;4953004;28;20115;-65
2022/02/19 09:13:59;;;;;;;8.35;3.10;;;;;;;1.89;81.57;97872.53;4954673;28;20153;-65
2022/02/19 09:16:33;;;;;;;9.38;3.03;;;;;;;1.97;81.21;97875.34;4987003;28;20137;-65
2022/02/19 09:18:59;;;;;;;9.30;2.80;;;;;;;1.84;81.03;97859.66;4975204;28;20058;-65
2022/02/19 09:21:25;;;;;;;8.00;3.03;;;;;;;1.93;80.98;97868.63;4953531;28;20058;-65
2022/02/19 09:23:51;;;;;;;9.18;2.42;;;;;;;1.88;80.60;97852.22;4953802;28;20464;-64
2022/02/19 09:26:17;;;;;;;9.43;2.63;;;;;;;1.83;80.80;97862.44;4964849;28;20467;-65
2022/02/19 09:28:43;;;;;;;7.57;2.20;;;;;;;1.84;80.98;97851.66;4957032;28;20054;-65
2022/02/19 09:31:09;;;;;;;7.53;2.53;;;;;;;1.90;80.48;97852.91;4964367;28;20471;-65
2022/02/19 09:33:35;;;;;;;9.75;2.50;;;;;;;1.88;80.09;97849.56;4983334;28;20474;-65
2022/02/19 09:36:01;;;;;;;8.38;2.45;;;;;;;1.87;79.95;97858.53;4963352;28;20050;-65
2022/02/19 09:38:27;;;;;;;7.95;2.63;;;;;;;1.92;80.55;97845.63;4954804;28;20053;-65
2022/02/19 09:40:54;;;;;;;8.48;2.70;;;;;;;1.90;80.54;97847.56;4956830;28;20142;-65
2022/02/19 09:43:20;;;;;;;10.07;3.00;;;;;;;1.83;80.76;97847.31;4975849;28;20059;-65
2022/02/19 09:45:47;;;;;;;10.18;3.40;;;;;;;1.80;80.06;97828.94;4962471;28;20050;-65
2022/02/19 09:48:15;;;;;;;10.75;2.75;;;;;;;1.79;80.87;97839.72;4951285;28;20101;-65
2022/02/19 09:50:43;;;;;;;9.65;3.45;;;;;;;1.75;80.37;97833.00;4949401;28;20062;-67
2022/02/19 09:53:09;;;;;;;7.20;2.40;;;;;;;1.82;80.05;97812.81;4962845;28;20075;-65
2022/02/19 09:55:36;;;;;;;8.18;2.97;;;;;;;1.84;80.06;97818.84;4941163;28;20050;-66
2022/02/19 09:58:03;;;;;;;8.20;2.75;;;;;;;1.93;79.56;97825.97;4956647;28;20046;-65
2022/02/19 10:00:40;;;;;;;9.75;2.88;;;;;;;2.02;78.98;97816.31;4954247;28;20495;-66
2022/02/19 10:03:21;;;;;;;8.30;2.75;;;;;;;1.82;79.42;97804.81;4938743;28;20134;-66
2022/02/19 10:05:48;;;;;;;9.52;2.90;;;;;;;1.88;81.18;97817.59;4955665;28;20043;-65
2022/02/19 10:08:14;;;;;;;7.63;2.60;;;;;;;1.79;82.85;97819.28;4930565;28;20121;-66
2022/02/19 10:10:47;;;;;;;7.35;2.65;;;;;;;1.63;85.18;97798.53;4961309;28;20372;-66
2022/02/19 10:13:26;;;;;;;11.90;3.28;;;;;;;1.50;87.32;97794.47;4956795;28;20133;-67
2022/02/19 10:15:52;;;;;;;11.88;3.88;;;;;;;1.30;89.51;97790.97;4938753;28;20576;-66
2022/02/19 10:18:22;;;;;;;10.88;3.38;;;;;;;1.32;91.16;97783.69;4958361;28;20599;-68
2022/02/19 10:20:52;;;;;;;9.80;3.35;;;;;;;1.25;93.84;97814.50;4972639;28;20050;-70
2022/02/19 10:23:19;;;;;;;12.95;4.43;;;;;;;1.06;95.35;97805.50;4967501;28;20056;-73
2022/02/19 10:26:02;;;;;;;11.45;4.00;;;;;;;0.96;96.70;97794.00;4930303;28;20031;-68
2022/02/19 10:28:28;;;;;;;11.98;4.00;;;;;;;0.92;98.36;97773.97;4954931;28;20042;-65
2022/02/19 10:30:54;;;;;;;11.30;3.80;;;;;;;0.91;98.31;97782.91;4976198;28;20042;-67
2022/02/19 10:33:26;;;;;;;10.48;4.30;;;;;;;0.80;100.00;97764.41;4927567;28;20049;-65
2022/02/19 10:35:53;;;;;;;15.73;4.30;;;;;;;0.72;100.00;97776.56;4957673;28;20149;-72
2022/02/19 10:38:20;;;;;;;10.05;3.22;;;;;;;0.74;100.00;97770.28;4939801;28;20083;-65
2022/02/19 10:40:47;;;;;;;13.75;4.07;;;;;;;0.64;100.00;97752.47;4923467;28;20054;-64
2022/02/19 10:43:20;;;;;;;12.90;3.85;;;;;;;0.66;100.00;97750.53;4971273;28;20071;-65
2022/02/19 10:45:59;;;;;;;11.10;4.55;;;;;;;0.57;100.00;97746.03;4970405;28;20054;-65
2022/02/19 10:48:36;;;;;;;11.10;4.22;;;;;;;0.58;100.00;97742.38;4935603;28;20051;-66
2022/02/19 10:51:14;;;;;;;11.25;3.67;;;;;;;0.49;100.00;97721.94;4935552;28;20414;-64
2022/02/19 10:53:43;;;;;;;9.68;3.42;;;;;;;0.52;100.00;97713.69;4953685;28;20039;-66
2022/02/19 10:56:14;;;;;;;12.50;4.00;;;;;;;0.51;100.00;97713.81;4937648;28;20062;-67
2022/02/19 10:58:59;;;;;;;9.55;3.72;;;;;;;0.43;100.00;97706.53;4956091;28;20054;-67
2022/02/19 11:01:26;;;;;;;13.02;3.50;;;;;;;0.38;100.00;97703.44;4935337;28;20046;-65
2022/02/19 11:03:53;;;;;;;11.45;3.95;;;;;;;0.33;100.00;97684.38;4922153;28;20034;-70
2022/02/19 11:06:18;;;;;;;10.43;4.55;;;;;;;0.18;100.00;97675.94;4952753;28;20047;-66
2022/02/19 11:08:45;;;;;;;11.55;4.45;;;;;;;0.16;100.00;97693.88;4937713;28;20035;-65
2022/02/19 11:11:12;;;;;;;14.10;4.82;;;;;;;0.19;100.00;97680.31;4952792;28;20049;-65
2022/02/19 11:13:39;;;;;;;12.43;5.88;;;;;;;0.18;100.00;97660.88;4937348;28;20043;-66
2022/02/19 11:16:06;;;;;;;12.88;5.32;;;;;;;0.20;100.00;97658.91;4971565;28;20065;-67
2022/02/19 11:18:36;;;;;;;13.00;5.55;;;;;;;0.18;100.00;97642.28;4966103;28;20145;-67
2022/02/19 11:21:03;;;;;;;13.57;5.85;;;;;;;0.12;100.00;97626.03;4969830;28;20051;-68
2022/02/19 11:23:31;;;;;;;14.05;6.93;;;;;;;0.03;100.00;97630.31;4940888;28;20127;-68
2022/02/19 11:25:58;;;;;;;15.15;5.50;;;;;;;0.04;100.00;97616.09;4936694;28;20483;-67
2022/02/19 11:28:26;;;;;;;9.10;3.63;;;;;;;0.08;100.00;97601.56;4938587;28;20133;-65
2022/02/19 11:30:55;;;;;;;12.63;6.32;;;;;;;0.12;100.00;97608.28;4938915;28;20067;-67
2022/02/19 11:33:22;;;;;;;11.95;6.63;;;;;;;-0.20;100.00;97549.22;4947432;28;20561;-65
2022/02/19 11:35:48;;;;;;;16.02;7.68;;;;;;;0.07;100.00;97578.59;4962685;28;20035;-66
2022/02/19 11:38:22;;;;;;;15.93;7.13;;;;;;;-0.01;100.00;97581.13;4960954;28;20047;-67
2022/02/19 11:40:51;;;;;;;13.05;6.63;;;;;;;-0.11;100.00;97559.88;4939667;28;20054;-66
2022/02/19 11:43:39;;;;;;;17.27;7.30;;;;;;;-0.19;100.00;97570.31;4969594;28;20043;-66
2022/02/19 11:46:15;;;;;;;15.57;7.63;;;;;;;-0.21;100.00;97553.69;4942098;28;20157;-67